createdAt,value
2017-07-29T00:00:17.138Z,4.97
2017-07-29T00:02:44.168Z,6.20
2017-07-29T00:05:10.472Z,7.70
2017-07-29T00:07:37.502Z,5.07
2017-07-29T00:10:03.766Z,5.50
2017-07-29T00:12:30.019Z,5.37
2017-07-29T00:14:57.058Z,5.80
2017-07-29T00:17:23.330Z,5.90
2017-07-29T00:19:50.338Z,6.67
2017-07-29T00:22:16.611Z,5.70
2017-07-29T00:24:43.604Z,5.30
2017-07-29T00:27:10.676Z,5.70
2017-07-29T00:29:37.690Z,5.40
2017-07-29T00:32:04.681Z,5.33
2017-07-29T00:34:30.930Z,5.30
2017-07-29T00:36:57.279Z,5.30
2017-07-29T00:39:23.547Z,5.43
2017-07-29T00:41:49.815Z,5.07
2017-07-29T00:44:16.045Z,5.13
2017-07-29T00:46:42.306Z,4.87
2017-07-29T00:49:08.542Z,6.27
2017-07-29T00:51:34.989Z,5.13
2017-07-29T00:54:01.268Z,5.60
2017-07-29T00:56:28.242Z,5.80
2017-07-29T00:58:54.509Z,5.30
2017-07-29T01:01:20.780Z,5.60
2017-07-29T01:03:47.744Z,4.90
2017-07-29T01:06:14.755Z,6.13
2017-07-29T01:08:41.049Z,4.90
2017-07-29T01:11:07.314Z,5.90
2017-07-29T01:13:34.216Z,5.47
2017-07-29T01:16:00.506Z,5.40
2017-07-29T01:18:26.750Z,5.93
2017-07-29T01:20:53.027Z,6.50
2017-07-29T01:23:19.246Z,5.90
2017-07-29T01:25:46.239Z,5.03
2017-07-29T01:28:14.068Z,5.53
2017-07-29T01:30:40.322Z,4.90
2017-07-29T01:33:06.574Z,6.43
2017-07-29T01:35:32.893Z,6.30
2017-07-29T01:37:59.145Z,5.27
2017-07-29T01:40:25.386Z,4.90
2017-07-29T01:42:51.758Z,5.97
2017-07-29T01:45:18.020Z,5.80
2017-07-29T01:47:44.291Z,5.87
2017-07-29T01:50:10.557Z,6.37
2017-07-29T01:52:36.822Z,6.20
2017-07-29T01:55:03.807Z,5.70
2017-07-29T01:57:31.044Z,5.40
2017-07-29T01:59:57.299Z,5.30
2017-07-29T02:02:23.557Z,5.47
2017-07-29T02:04:49.850Z,5.00
2017-07-29T02:07:16.830Z,4.70
2017-07-29T02:09:43.129Z,7.33
2017-07-29T02:12:09.434Z,5.90
2017-07-29T02:14:35.712Z,6.60
2017-07-29T02:17:02.710Z,5.40
2017-07-29T02:19:29.685Z,5.10
2017-07-29T02:21:55.969Z,5.43
2017-07-29T02:24:22.197Z,6.20
2017-07-29T02:26:48.450Z,5.50
2017-07-29T02:29:15.142Z,5.67
2017-07-29T02:31:42.134Z,5.00
2017-07-29T02:34:08.407Z,4.93
2017-07-29T02:36:34.669Z,4.90
2017-07-29T02:39:01.660Z,5.23
2017-07-29T02:41:28.103Z,5.50
2017-07-29T02:43:54.339Z,4.80
2017-07-29T02:46:20.618Z,3.90
2017-07-29T02:48:47.055Z,4.60
2017-07-29T02:51:14.047Z,5.00
2017-07-29T02:53:40.327Z,5.03
2017-07-29T02:56:13.054Z,4.70
2017-07-29T02:58:39.339Z,4.90
2017-07-29T03:01:05.611Z,5.90
2017-07-29T03:03:34.419Z,4.57
2017-07-29T03:06:00.715Z,4.80
2017-07-29T03:08:26.997Z,4.90
2017-07-29T03:10:53.275Z,4.97
2017-07-29T03:13:19.535Z,5.17
2017-07-29T03:15:46.546Z,5.00
2017-07-29T03:18:12.911Z,4.87
2017-07-29T03:20:39.931Z,5.27
2017-07-29T03:23:06.252Z,5.83
2017-07-29T03:25:32.895Z,5.40
2017-07-29T03:27:59.155Z,5.17
2017-07-29T03:30:27.613Z,4.80
2017-07-29T03:32:54.723Z,5.97
2017-07-29T03:35:20.994Z,8.07
2017-07-29T03:37:47.250Z,8.73
2017-07-29T03:40:21.442Z,5.00
2017-07-29T03:42:47.703Z,5.80
2017-07-29T03:45:13.963Z,5.20
2017-07-29T03:47:40.267Z,5.40
2017-07-29T03:50:06.575Z,5.67
2017-07-29T03:52:32.887Z,4.37
2017-07-29T03:54:59.171Z,4.73
2017-07-29T03:57:25.458Z,5.37
2017-07-29T03:59:58.699Z,5.33
2017-07-29T04:02:24.978Z,4.67
2017-07-29T04:04:51.231Z,5.90
2017-07-29T04:07:19.752Z,4.67
2017-07-29T04:09:46.003Z,6.13
2017-07-29T04:12:12.250Z,5.30
2017-07-29T04:14:39.342Z,4.17
2017-07-29T04:17:06.354Z,5.57
2017-07-29T04:19:32.615Z,4.50
2017-07-29T04:22:05.891Z,5.20
2017-07-29T04:24:32.186Z,5.80
2017-07-29T04:26:58.455Z,4.90
2017-07-29T04:29:25.884Z,4.80
2017-07-29T04:31:53.331Z,5.03
2017-07-29T04:34:20.355Z,5.73
2017-07-29T04:36:46.642Z,5.73
2017-07-29T04:39:12.915Z,4.90
2017-07-29T04:41:39.211Z,5.50
2017-07-29T04:44:05.483Z,5.47
2017-07-29T04:46:31.779Z,5.47
2017-07-29T04:48:58.052Z,5.50
2017-07-29T04:51:24.378Z,7.27
2017-07-29T04:53:50.625Z,4.50
2017-07-29T04:56:16.875Z,5.70
2017-07-29T04:58:43.149Z,6.43
2017-07-29T05:01:09.531Z,6.70
2017-07-29T05:03:35.827Z,5.60
2017-07-29T05:06:02.131Z,5.90
2017-07-29T05:08:28.399Z,5.63
2017-07-29T05:10:55.387Z,5.60
2017-07-29T05:13:22.520Z,5.30
2017-07-29T05:15:48.800Z,5.07
2017-07-29T05:18:15.072Z,5.90
2017-07-29T05:20:41.451Z,6.70
2017-07-29T05:23:07.727Z,5.73
2017-07-29T05:25:34.723Z,5.83
2017-07-29T05:28:01.023Z,5.90
2017-07-29T05:30:28.027Z,6.07
2017-07-29T05:32:54.743Z,6.60
2017-07-29T05:35:21.389Z,6.20
2017-07-29T05:37:47.668Z,6.63
2017-07-29T05:40:14.683Z,6.20
2017-07-29T05:42:40.975Z,6.90
2017-07-29T05:45:07.995Z,6.93
2017-07-29T05:47:34.253Z,5.40
2017-07-29T05:50:00.569Z,7.10
2017-07-29T05:52:26.830Z,6.50
2017-07-29T05:54:53.111Z,10.20
2017-07-29T05:57:20.196Z,7.00
2017-07-29T05:59:46.524Z,7.47
2017-07-29T06:02:12.836Z,6.47
2017-07-29T06:04:39.104Z,6.50
2017-07-29T06:07:05.403Z,6.70
2017-07-29T06:09:31.659Z,6.60
2017-07-29T06:11:57.976Z,6.87
2017-07-29T06:14:24.234Z,7.13
2017-07-29T06:16:50.507Z,6.73
2017-07-29T06:19:18.291Z,7.77
2017-07-29T06:21:45.335Z,6.37
2017-07-29T06:24:12.367Z,6.83
2017-07-29T06:26:38.677Z,7.20
2017-07-29T06:29:04.954Z,7.40
2017-07-29T06:31:31.983Z,6.20
2017-07-29T06:33:59.550Z,7.07
2017-07-29T06:36:25.822Z,7.20
2017-07-29T06:38:52.106Z,6.80
2017-07-29T06:41:18.444Z,6.53
2017-07-29T06:43:44.726Z,7.33
2017-07-29T06:46:11.051Z,6.53
2017-07-29T06:48:37.390Z,5.80
2017-07-29T06:51:03.662Z,6.43
2017-07-29T06:53:29.943Z,6.33
2017-07-29T06:55:56.255Z,6.70
2017-07-29T06:58:22.542Z,6.07
2017-07-29T07:00:49.539Z,6.67
2017-07-29T07:03:15.878Z,6.27
2017-07-29T07:05:42.151Z,6.27
2017-07-29T07:08:09.171Z,7.53
2017-07-29T07:10:35.455Z,7.30
2017-07-29T07:13:02.468Z,7.03
2017-07-29T07:15:28.700Z,7.20
2017-07-29T07:17:54.975Z,6.60
2017-07-29T07:20:21.982Z,6.73
2017-07-29T07:22:48.261Z,7.70
2017-07-29T07:25:16.175Z,6.73
2017-07-29T07:27:42.414Z,6.23
2017-07-29T07:30:08.735Z,7.40
2017-07-29T07:32:35.020Z,6.60
2017-07-29T07:35:02.620Z,7.50
2017-07-29T07:37:29.603Z,7.27
2017-07-29T07:39:55.894Z,6.87
2017-07-29T07:42:22.915Z,7.30
2017-07-29T07:44:49.175Z,6.80
2017-07-29T07:47:16.528Z,6.00
2017-07-29T07:49:42.879Z,7.80
2017-07-29T07:52:09.167Z,7.03
2017-07-29T07:54:35.451Z,7.90
2017-07-29T07:57:02.467Z,7.17
2017-07-29T07:59:28.743Z,7.00
2017-07-29T08:01:55.791Z,7.03
2017-07-29T08:04:22.831Z,6.53
2017-07-29T08:06:49.104Z,6.50
2017-07-29T08:09:15.862Z,8.53
2017-07-29T08:11:42.176Z,7.13
2017-07-29T08:14:09.171Z,7.17
2017-07-29T08:16:35.462Z,6.80
2017-07-29T08:19:01.747Z,6.50
2017-07-29T08:21:28.096Z,8.10
2017-07-29T08:23:55.271Z,7.23
2017-07-29T08:26:22.484Z,6.70
2017-07-29T08:28:49.080Z,6.40
2017-07-29T08:31:17.080Z,6.50
2017-07-29T08:33:43.378Z,7.93
2017-07-29T08:36:12.380Z,6.87
2017-07-29T08:38:38.883Z,6.87
2017-07-29T08:41:05.207Z,7.30
2017-07-29T08:43:31.588Z,14.37
2017-07-29T08:45:58.676Z,11.03
2017-07-29T08:48:26.098Z,9.97
2017-07-29T08:50:53.484Z,9.13
2017-07-29T08:53:20.506Z,9.47
2017-07-29T08:55:47.671Z,8.80
2017-07-29T08:58:14.898Z,10.20
2017-07-29T09:00:42.983Z,9.50
2017-07-29T09:03:10.069Z,8.57
2017-07-29T09:05:36.502Z,8.40
2017-07-29T09:08:05.007Z,9.97
2017-07-29T09:10:31.288Z,8.20
2017-07-29T09:12:57.848Z,8.30
2017-07-29T09:15:25.959Z,8.80
2017-07-29T09:17:52.294Z,7.87
2017-07-29T09:20:18.596Z,10.40
2017-07-29T09:22:44.891Z,8.73
2017-07-29T09:25:11.143Z,9.73
2017-07-29T09:27:37.415Z,8.80
2017-07-29T09:30:03.719Z,8.50
2017-07-29T09:32:30.039Z,9.17
2017-07-29T09:34:56.283Z,8.03
2017-07-29T09:37:23.991Z,9.00
2017-07-29T09:39:50.264Z,8.03
2017-07-29T09:42:17.272Z,7.77
2017-07-29T09:44:44.340Z,8.83
2017-07-29T09:47:11.360Z,8.90
2017-07-29T09:49:37.686Z,8.90
2017-07-29T09:52:03.967Z,9.20
2017-07-29T09:54:30.991Z,8.10
2017-07-29T09:56:57.279Z,8.53
2017-07-29T09:59:24.321Z,8.50
2017-07-29T10:01:51.319Z,7.00
2017-07-29T10:04:17.603Z,8.40
2017-07-29T10:06:44.651Z,6.50
2017-07-29T10:09:11.672Z,8.23
2017-07-29T10:11:37.919Z,7.23
2017-07-29T10:14:04.218Z,8.10
2017-07-29T10:16:30.498Z,9.23
2017-07-29T10:18:56.762Z,8.43
2017-07-29T10:21:24.149Z,7.47
2017-07-29T10:23:50.459Z,7.37
2017-07-29T10:26:17.455Z,7.10
2017-07-29T10:28:43.746Z,9.03
2017-07-29T10:31:10.120Z,7.90
2017-07-29T10:33:36.384Z,7.37
2017-07-29T10:36:02.782Z,7.07
2017-07-29T10:38:42.669Z,6.50
2017-07-29T10:41:10.850Z,7.50
2017-07-29T10:43:37.170Z,6.47
2017-07-29T10:46:03.438Z,7.77
2017-07-29T10:48:30.468Z,8.13
2017-07-29T10:50:56.783Z,7.67
2017-07-29T10:53:23.051Z,9.20
2017-07-29T10:55:49.320Z,10.47
2017-07-29T10:58:16.308Z,8.37
2017-07-29T11:00:42.598Z,8.50
2017-07-29T11:03:10.392Z,9.20
2017-07-29T11:05:36.647Z,8.63
2017-07-29T11:08:02.925Z,8.23
2017-07-29T11:10:29.973Z,8.87
2017-07-29T11:12:56.273Z,9.37
2017-07-29T11:15:22.567Z,9.40
2017-07-29T11:17:49.603Z,8.20
2017-07-29T11:20:15.906Z,10.37
2017-07-29T11:22:42.212Z,12.27
2017-07-29T11:25:08.975Z,11.37
2017-07-29T11:27:35.297Z,9.50
2017-07-29T11:30:01.583Z,13.40
2017-07-29T11:32:29.372Z,12.07
2017-07-29T11:34:56.367Z,11.83
2017-07-29T11:37:22.647Z,12.40
2017-07-29T11:39:48.923Z,10.77
2017-07-29T11:42:28.439Z,9.63
2017-07-29T11:44:55.927Z,8.60
2017-07-29T11:47:22.190Z,10.70
2017-07-29T11:49:48.476Z,10.53
2017-07-29T11:52:14.820Z,10.70
2017-07-29T11:54:41.087Z,8.97
2017-07-29T11:57:07.359Z,8.27
2017-07-29T11:59:33.647Z,9.73
2017-07-29T12:01:59.923Z,10.13
2017-07-29T12:04:26.963Z,9.70
2017-07-29T12:06:53.793Z,7.83
2017-07-29T12:09:22.337Z,7.80
2017-07-29T12:11:50.345Z,8.63
2017-07-29T12:14:17.937Z,9.40
2017-07-29T12:16:46.849Z,8.50
2017-07-29T12:19:13.201Z,7.07
2017-07-29T12:21:40.232Z,7.90
2017-07-29T12:24:06.507Z,8.10
2017-07-29T12:26:33.531Z,8.17
2017-07-29T12:28:59.887Z,8.63
2017-07-29T12:31:26.882Z,7.90
2017-07-29T12:33:53.159Z,8.27
2017-07-29T12:36:19.451Z,8.73
2017-07-29T12:38:45.738Z,10.00
2017-07-29T12:41:12.762Z,9.43
2017-07-29T12:43:39.059Z,9.90
2017-07-29T12:46:05.455Z,11.33
2017-07-29T12:48:31.743Z,8.80
2017-07-29T12:50:58.063Z,9.47
2017-07-29T12:53:24.359Z,8.70
2017-07-29T12:55:50.638Z,10.93
2017-07-29T12:58:16.928Z,10.90
2017-07-29T13:00:43.231Z,11.97
2017-07-29T13:03:09.511Z,12.07
2017-07-29T13:05:36.574Z,12.87
2017-07-29T13:08:03.620Z,13.10
2017-07-29T13:10:30.671Z,13.90
2017-07-29T13:12:57.753Z,14.37
2017-07-29T13:15:24.041Z,14.90
2017-07-29T13:17:50.330Z,8.33
2017-07-29T13:20:17.355Z,6.30
2017-07-29T13:22:43.627Z,6.30
2017-07-29T13:25:09.895Z,6.20
2017-07-29T13:27:36.170Z,4.47
2017-07-29T13:30:03.206Z,4.07
2017-07-29T13:32:29.467Z,2.80
2017-07-29T13:34:57.065Z,2.73
2017-07-29T13:37:23.342Z,4.07
2017-07-29T13:39:49.707Z,4.20
2017-07-29T13:42:16.034Z,3.50
2017-07-29T13:44:43.059Z,3.33
2017-07-29T13:47:10.217Z,3.20
2017-07-29T13:49:37.286Z,7.43
2017-07-29T13:52:03.568Z,3.70
2017-07-29T13:54:29.859Z,4.47
2017-07-29T13:56:56.182Z,2.90
2017-07-29T13:59:22.495Z,3.40
2017-07-29T14:01:48.801Z,2.90
2017-07-29T14:04:15.083Z,3.10
2017-07-29T14:06:41.386Z,2.87
2017-07-29T14:09:07.673Z,3.10
2017-07-29T14:11:33.951Z,3.40
2017-07-29T14:14:00.204Z,5.30
2017-07-29T14:16:26.467Z,4.67
2017-07-29T14:18:53.186Z,5.90
2017-07-29T14:21:19.435Z,4.40
2017-07-29T14:23:45.711Z,2.93
2017-07-29T14:26:12.030Z,4.87
2017-07-29T14:28:39.062Z,2.80
2017-07-29T14:31:05.345Z,3.73
2017-07-29T14:33:31.664Z,2.60
2017-07-29T14:35:58.684Z,2.67
2017-07-29T14:38:24.975Z,2.87
2017-07-29T14:40:51.423Z,3.63
2017-07-29T14:43:17.688Z,4.60
2017-07-29T14:45:43.962Z,2.70
2017-07-29T14:48:30.443Z,4.43
2017-07-29T14:50:56.708Z,4.37
2017-07-29T14:53:23.704Z,3.13
2017-07-29T14:55:50.011Z,4.13
2017-07-29T14:58:16.298Z,4.37
2017-07-29T15:00:42.555Z,4.07
2017-07-29T15:03:10.347Z,3.13
2017-07-29T15:05:36.631Z,2.90
2017-07-29T15:08:02.899Z,3.17
2017-07-29T15:10:29.964Z,2.93
2017-07-29T15:12:56.977Z,2.73
2017-07-29T15:15:23.271Z,3.43
2017-07-29T15:17:49.547Z,3.10
2017-07-29T15:20:15.842Z,3.00
2017-07-29T15:22:42.101Z,3.40
2017-07-29T15:25:08.431Z,2.70
2017-07-29T15:27:34.720Z,2.57
2017-07-29T15:30:01.003Z,3.60
2017-07-29T15:32:27.303Z,2.50
2017-07-29T15:34:53.567Z,3.00
2017-07-29T15:37:19.843Z,2.63
2017-07-29T15:39:46.866Z,2.60
2017-07-29T15:42:13.234Z,3.10
2017-07-29T15:44:39.523Z,3.30
2017-07-29T15:47:06.772Z,3.13
2017-07-29T15:49:33.972Z,2.70
2017-07-29T15:52:00.999Z,3.23
2017-07-29T15:54:27.391Z,3.80
2017-07-29T15:56:54.415Z,4.20
2017-07-29T15:59:20.678Z,3.00
2017-07-29T16:01:46.954Z,5.20
2017-07-29T16:04:13.230Z,3.10
2017-07-29T16:06:39.501Z,3.60
2017-07-29T16:09:05.799Z,3.30
2017-07-29T16:11:32.055Z,2.63
2017-07-29T16:13:59.047Z,3.20
2017-07-29T16:16:25.388Z,2.67
2017-07-29T16:18:51.691Z,3.97
2017-07-29T16:21:18.713Z,3.10
2017-07-29T16:23:45.050Z,3.53
2017-07-29T16:26:11.468Z,2.63
2017-07-29T16:28:37.906Z,4.17
2017-07-29T16:31:04.367Z,4.27
2017-07-29T16:33:30.798Z,3.30
2017-07-29T16:35:57.201Z,3.67
2017-07-29T16:38:23.722Z,2.67
2017-07-29T16:40:50.992Z,3.13
2017-07-29T16:43:18.310Z,2.90
2017-07-29T16:45:45.738Z,3.30
2017-07-29T16:48:12.901Z,3.40
2017-07-29T16:50:51.451Z,3.77
2017-07-29T16:53:17.885Z,4.27
2017-07-29T16:55:44.330Z,4.00
2017-07-29T16:58:11.806Z,3.50
2017-07-29T17:00:39.859Z,3.93
2017-07-29T17:03:06.258Z,4.03
2017-07-29T17:05:33.908Z,4.70
2017-07-29T17:08:00.215Z,4.33
2017-07-29T17:10:26.571Z,4.77
2017-07-29T17:12:53.240Z,4.40
2017-07-29T17:15:19.558Z,5.10
2017-07-29T17:17:45.869Z,5.30
2017-07-29T17:20:12.915Z,4.90
2017-07-29T17:22:39.985Z,4.60
2017-07-29T17:25:06.275Z,4.90
2017-07-29T17:27:32.705Z,6.37
2017-07-29T17:29:58.996Z,7.27
2017-07-29T17:32:25.288Z,6.87
2017-07-29T17:34:51.590Z,6.70
2017-07-29T17:37:17.862Z,7.90
2017-07-29T17:39:44.160Z,7.70
2017-07-29T17:42:10.486Z,7.93
2017-07-29T17:44:36.755Z,8.87
2017-07-29T17:47:03.077Z,7.13
2017-07-29T17:49:30.236Z,7.00
2017-07-29T17:51:57.377Z,6.90
2017-07-29T17:54:23.630Z,7.90
2017-07-29T17:56:50.019Z,6.87
2017-07-29T17:59:17.011Z,7.43
2017-07-29T18:01:43.370Z,7.90
2017-07-29T18:04:09.687Z,6.60
2017-07-29T18:06:35.939Z,7.10
2017-07-29T18:09:02.236Z,6.97
2017-07-29T18:11:28.567Z,5.77
2017-07-29T18:13:55.595Z,5.00
2017-07-29T18:16:22.619Z,5.13
2017-07-29T18:18:48.906Z,4.70
2017-07-29T18:21:15.170Z,5.00
2017-07-29T18:23:41.455Z,5.30
2017-07-29T18:26:07.803Z,4.33
2017-07-29T18:28:34.826Z,5.30
2017-07-29T18:31:02.034Z,5.27
2017-07-29T18:33:28.346Z,5.03
2017-07-29T18:35:55.383Z,4.70
2017-07-29T18:38:29.283Z,5.33
2017-07-29T18:40:55.554Z,6.17
2017-07-29T18:43:22.579Z,7.10
2017-07-29T18:45:48.956Z,5.80
2017-07-29T18:48:15.245Z,5.20
2017-07-29T18:50:41.507Z,5.20
2017-07-29T18:53:10.575Z,5.30
2017-07-29T18:55:36.859Z,5.60
2017-07-29T18:58:03.875Z,4.73
2017-07-29T19:00:30.188Z,4.80
2017-07-29T19:02:56.442Z,4.70
2017-07-29T19:05:22.711Z,4.70
2017-07-29T19:07:48.976Z,4.60
2017-07-29T19:10:15.239Z,5.63
2017-07-29T19:12:41.511Z,5.30
2017-07-29T19:15:09.116Z,5.30
2017-07-29T19:17:35.386Z,5.43
2017-07-29T19:20:01.639Z,4.70
2017-07-29T19:22:28.118Z,4.60
2017-07-29T19:24:54.383Z,5.37
2017-07-29T19:27:20.648Z,4.77
2017-07-29T19:29:46.918Z,5.30
2017-07-29T19:32:13.184Z,6.03
2017-07-29T19:34:39.507Z,5.73
2017-07-29T19:37:05.838Z,5.10
2017-07-29T19:39:32.130Z,5.47
2017-07-29T19:41:59.139Z,5.20
2017-07-29T19:44:25.409Z,6.73
2017-07-29T19:46:51.666Z,5.40
2017-07-29T19:49:18.659Z,5.20
2017-07-29T19:51:44.944Z,6.13
2017-07-29T19:54:11.262Z,5.37
2017-07-29T19:56:37.533Z,4.80
2017-07-29T19:59:03.856Z,5.77
2017-07-29T20:01:30.132Z,5.20
2017-07-29T20:03:56.395Z,5.43
2017-07-29T20:06:22.712Z,5.20
2017-07-29T20:08:48.976Z,5.40
2017-07-29T20:11:15.279Z,6.30
2017-07-29T20:13:41.579Z,5.43
2017-07-29T20:16:08.002Z,5.87
2017-07-29T20:18:34.296Z,5.63
2017-07-29T20:21:01.503Z,6.20
2017-07-29T20:23:27.775Z,5.57
2017-07-29T20:25:54.065Z,6.50
2017-07-29T20:28:21.106Z,6.60
2017-07-29T20:30:48.171Z,6.30
2017-07-29T20:33:15.179Z,6.87
2017-07-29T20:35:41.475Z,6.00
2017-07-29T20:38:07.767Z,6.57
2017-07-29T20:40:34.042Z,6.50
2017-07-29T20:43:01.131Z,6.13
2017-07-29T20:45:27.392Z,6.40
2017-07-29T20:47:53.656Z,7.13
2017-07-29T20:50:20.720Z,6.50
2017-07-29T20:52:47.727Z,7.60
2017-07-29T20:55:14.855Z,6.90
2017-07-29T20:57:41.131Z,7.77
2017-07-29T21:00:07.421Z,8.17
2017-07-29T21:02:33.687Z,7.67
2017-07-29T21:04:59.981Z,8.10
2017-07-29T21:07:26.975Z,7.83
2017-07-29T21:09:53.267Z,6.83
2017-07-29T21:12:20.326Z,9.53
2017-07-29T21:14:46.653Z,8.80
2017-07-29T21:17:13.653Z,8.00
2017-07-29T21:19:39.932Z,7.60
2017-07-29T21:22:06.956Z,8.10
2017-07-29T21:24:33.199Z,7.60
2017-07-29T21:27:00.314Z,7.70
2017-07-29T21:29:26.647Z,7.90
2017-07-29T21:31:52.931Z,6.40
2017-07-29T21:34:19.222Z,6.30
2017-07-29T21:36:45.507Z,7.30
2017-07-29T21:39:11.782Z,7.83
2017-07-29T21:41:38.151Z,8.13
2017-07-29T21:44:04.427Z,6.67
2017-07-29T21:46:31.434Z,6.90
2017-07-29T21:48:58.487Z,7.50
2017-07-29T21:51:24.753Z,8.27
2017-07-29T21:53:51.006Z,7.90
2017-07-29T21:56:18.919Z,7.63
2017-07-29T21:58:45.173Z,8.00
2017-07-29T22:01:11.451Z,7.57
2017-07-29T22:03:37.770Z,7.57
2017-07-29T22:06:04.831Z,7.90
2017-07-29T22:08:31.830Z,8.17
2017-07-29T22:10:58.134Z,7.47
2017-07-29T22:13:25.127Z,8.60
2017-07-29T22:15:51.392Z,7.37
2017-07-29T22:18:17.675Z,7.50
2017-07-29T22:20:43.963Z,7.30
2017-07-29T22:23:10.231Z,7.90
2017-07-29T22:25:37.255Z,8.30
2017-07-29T22:28:04.270Z,8.03
2017-07-29T22:30:30.539Z,8.63
2017-07-29T22:32:56.878Z,9.40
2017-07-29T22:35:23.158Z,8.40
2017-07-29T22:37:49.407Z,8.40
2017-07-29T22:40:15.711Z,8.20
2017-07-29T22:42:41.990Z,8.80
2017-07-29T22:45:08.263Z,8.97
2017-07-29T22:47:34.548Z,8.60
2017-07-29T22:50:00.804Z,8.60
2017-07-29T22:52:27.077Z,9.93
2017-07-29T22:54:54.127Z,9.70
2017-07-29T22:57:21.240Z,8.93
2017-07-29T22:59:47.524Z,9.10
2017-07-29T23:02:14.631Z,9.27
2017-07-29T23:04:40.906Z,8.50
2017-07-29T23:07:07.175Z,9.07
2017-07-29T23:09:33.440Z,9.73
2017-07-29T23:11:59.708Z,9.87
2017-07-29T23:14:26.724Z,9.57
2017-07-29T23:16:53.062Z,9.13
2017-07-29T23:19:19.323Z,7.93
2017-07-29T23:21:45.591Z,7.90
2017-07-29T23:24:12.622Z,8.93
2017-07-29T23:26:38.909Z,8.37
2017-07-29T23:29:05.167Z,8.20
2017-07-29T23:31:31.437Z,8.87
2017-07-29T23:33:57.715Z,8.60
2017-07-29T23:36:23.995Z,8.63
2017-07-29T23:38:50.583Z,7.93
2017-07-29T23:41:16.838Z,7.93
2017-07-29T23:43:43.115Z,8.30
2017-07-29T23:46:09.416Z,8.07
2017-07-29T23:48:35.687Z,8.63
2017-07-29T23:51:02.708Z,9.13
2017-07-29T23:53:29.011Z,8.93
2017-07-29T23:55:55.263Z,9.90
2017-07-29T23:58:32.471Z,8.30
